Time;durP1;ratioP1;P1;durP2;ratioP2;P2;SDS_P1;SDS_P2;PMS_P1;PMS_P2;Temp;Humidity;BMP_temperature;BMP_pressure;BME280_temperature;BME280_humidity;BME280_pressure;Samples;Min_cycle;Max_cycle;Signal;HPM_P1;HPM_P2
2022/12/26 00:01:23;;;;;;;;;;;;;;;;;;5035838;28;20313;-84
2022/12/26 00:03:51;;;;;;;;;;;;;;;;;;5028348;28;19921;-85
2022/12/26 00:06:19;;;;;;;;;;;;;;;;;;5022319;28;19922;-85
2022/12/26 00:08:46;;;;;;;;;;;;;;;;;;5059226;28;19932;-85
2022/12/26 00:11:14;;;;;;;;;;;;;;;;;;5026585;28;19921;-85
2022/12/26 00:13:46;;;;;;;;;;;;;;;;;;5057602;28;20289;-85
2022/12/26 00:16:19;;;;;;;;;;;;;;;;;;5029907;28;19928;-85
2022/12/26 00:18:51;;;;;;;;;;;;;;;;;;5037353;28;20285;-85
2022/12/26 00:21:18;;;;;;;;;;;;;;;;;;5033354;28;19921;-84
2022/12/26 00:23:51;;;;;;;;;;;;;;;;;;5031205;28;19928;-85
2022/12/26 00:26:18;;;;;;;;;;;;;;;;;;5020451;28;20297;-86
2022/12/26 00:28:51;;;;;;;;;;;;;;;;;;5019400;28;19928;-85
2022/12/26 00:31:19;;;;;;;;;;;;;;;;;;5030885;28;19921;-85
2022/12/26 00:33:46;;;;;;;;;;;;;;;;;;5022426;28;20003;-84
2022/12/26 00:36:13;;;;;;;;;;;;;;;;;;5025689;28;19921;-84
2022/12/26 00:38:46;;;;;;;;;;;;;;;;;;5032848;28;20389;-84
2022/12/26 00:41:14;;;;;;;;;;;;;;;;;;5028139;28;20672;-85
2022/12/26 00:43:41;;;;;;;;;;;;;;;;;;5021808;28;20032;-83
2022/12/26 00:46:14;;;;;;;;;;;;;;;;;;5019753;28;19921;-84
2022/12/26 00:48:41;;;;;;;;;;;;;;;;;;5016664;28;20615;-84
2022/12/26 00:51:14;;;;;;;;;;;;;;;;;;5041793;28;19929;-85
2022/12/26 00:53:46;;;;;;;;;;;;;;;;;;5024995;28;19925;-85
2022/12/26 00:56:19;;;;;;;;;;;;;;;;;;5030671;28;19928;-84
2022/12/26 00:58:46;;;;;;;;;;;;;;;;;;5028551;28;19926;-84
2022/12/26 01:01:19;;;;;;;;;;;;;;;;;;5021403;28;20832;-84
2022/12/26 01:03:51;;;;;;;;;;;;;;;;;;5026269;28;19950;-84
2022/12/26 01:06:19;;;;;;;;;;;;;;;;;;5020564;28;19928;-85
2022/12/26 01:08:46;;;;;;;;;;;;;;;;;;5020297;28;19925;-84
2022/12/26 01:11:14;;;;;;;;;;;;;;;;;;5055523;28;19921;-83
2022/12/26 01:13:46;;;;;;;;;;;;;;;;;;5023344;28;20436;-84
2022/12/26 01:16:14;;;;;;;;;;;;;;;;;;5029909;28;19921;-82
2022/12/26 01:18:41;;;;;;;;;;;;;;;;;;5020440;28;19928;-83
2022/12/26 01:21:09;;;;;;;;;;;;;;;;;;5023152;28;19928;-84
2022/12/26 01:23:36;;;;;;;;;;;;;;;;;;5018923;28;20460;-84
2022/12/26 01:26:04;;;;;;;;;;;;;;;;;;5046481;28;19927;-84
2022/12/26 01:28:31;;;;;;;;;;;;;;;;;;5027829;28;19921;-83
2022/12/26 01:30:59;;;;;;;;;;;;;;;;;;5031258;28;20285;-84
2022/12/26 01:33:26;;;;;;;;;;;;;;;;;;5020643;28;20854;-83
2022/12/26 01:35:59;;;;;;;;;;;;;;;;;;5017797;28;19921;-83
2022/12/26 01:38:26;;;;;;;;;;;;;;;;;;5023774;28;20314;-84
2022/12/26 01:41:15;;;;;;;;;;;;;;;;;;5030841;28;19921;-84
2022/12/26 01:43:41;;;;;;;;;;;;;;;;;;5060585;28;19921;-83
2022/12/26 01:46:14;;;;;;;;;;;;;;;;;;5018449;28;19921;-84
2022/12/26 01:48:41;;;;;;;;;;;;;;;;;;5019269;28;19921;-83
2022/12/26 01:51:14;;;;;;;;;;;;;;;;;;5031204;28;19921;-84
2022/12/26 01:53:41;;;;;;;;;;;;;;;;;;5026421;28;19921;-84
2022/12/26 01:56:09;;;;;;;;;;;;;;;;;;5026167;28;19921;-84
2022/12/26 01:58:36;;;;;;;;;;;;;;;;;;5014768;28;19925;-82
2022/12/26 02:01:04;;;;;;;;;;;;;;;;;;5034457;28;19921;-82
2022/12/26 02:06:17;;;;;;;;;;;;;;;;;;5030481;28;19925;-83
2022/12/26 02:08:44;;;;;;;;;;;;;;;;;;5021887;28;19921;-82
2022/12/26 02:11:12;;;;;;;;;;;;;;;;;;5065121;28;19928;-83
2022/12/26 02:13:39;;;;;;;;;;;;;;;;;;5035242;28;19921;-85
2022/12/26 02:16:07;;;;;;;;;;;;;;;;;;5026950;28;20328;-84
2022/12/26 02:18:34;;;;;;;;;;;;;;;;;;5018437;28;19936;-83
2022/12/26 02:21:02;;;;;;;;;;;;;;;;;;5027799;28;19921;-83
2022/12/26 02:23:30;;;;;;;;;;;;;;;;;;5028528;28;19921;-83
2022/12/26 02:25:57;;;;;;;;;;;;;;;;;;5017155;28;19925;-84
2022/12/26 02:28:25;;;;;;;;;;;;;;;;;;5016720;28;19928;-83
2022/12/26 02:30:57;;;;;;;;;;;;;;;;;;5040507;28;20435;-84
2022/12/26 02:33:30;;;;;;;;;;;;;;;;;;5032032;28;20290;-83
2022/12/26 02:36:02;;;;;;;;;;;;;;;;;;5012685;28;19921;-83
2022/12/26 02:38:35;;;;;;;;;;;;;;;;;;5025078;28;19921;-84
2022/12/26 02:41:02;;;;;;;;;;;;;;;;;;5030756;28;19921;-84
2022/12/26 02:43:35;;;;;;;;;;;;;;;;;;5021132;28;20398;-84
2022/12/26 02:48:53;;;;;;;;;;;;;;;;;;5054684;28;19921;-82
2022/12/26 03:13:52;;;;;;;;;;;;;;;;;;5056939;28;19921;-83
2022/12/26 03:19:12;;;;;;;;;;;;;;;;;;5012113;28;19922;-83
2022/12/26 03:21:40;;;;;;;;;;;;;;;;;;5029320;28;19928;-83
2022/12/26 03:24:12;;;;;;;;;;;;;;;;;;5019462;28;20378;-83
2022/12/26 03:26:39;;;;;;;;;;;;;;;;;;5031603;28;19921;-83
2022/12/26 03:32:02;;;;;;;;;;;;;;;;;;5034375;28;19921;-81
2022/12/26 03:34:34;;;;;;;;;;;;;;;;;;5051106;28;19921;-84
2022/12/26 03:37:07;;;;;;;;;;;;;;;;;;5032525;28;19921;-83
2022/12/26 04:44:09;;;;;;;;;;;;;;;;;;5029646;28;19944;-84
2022/12/26 04:46:36;;;;;;;;;;;;;;;;;;5030832;28;19921;-83
2022/12/26 04:51:54;;;;;;;;;;;;;;;;;;5023840;28;19921;-83
2022/12/26 04:54:26;;;;;;;;;;;;;;;;;;5034081;28;19928;-84
2022/12/26 04:56:54;;;;;;;;;;;;;;;;;;5025466;28;19928;-84
2022/12/26 04:59:21;;;;;;;;;;;;;;;;;;5024604;28;19921;-84
2022/12/26 05:10:24;;;;;;;;;;;;;;;;;;4991219;28;19922;-85
2022/12/26 05:12:51;;;;;;;;;;;;;;;;;;5030946;28;19929;-85
2022/12/26 05:15:24;;;;;;;;;;;;;;;;;;5061787;28;19921;-84
2022/12/26 05:29:26;;;;;;;;;;;;;;;;;;5027268;28;19932;-85
2022/12/26 05:31:54;;;;;;;;;;;;;;;;;;5028202;28;19921;-83
2022/12/26 05:34:20;;;;;;;;;;;;;;;;;;5033838;28;19921;-83
2022/12/26 05:36:54;;;;;;;;;;;;;;;;;;5053217;28;19944;-83
2022/12/26 05:39:26;;;;;;;;;;;;;;;;;;5026257;28;20715;-83
2022/12/26 05:41:54;;;;;;;;;;;;;;;;;;5027421;28;19928;-82
2022/12/26 05:44:21;;;;;;;;;;;;;;;;;;5030715;28;19921;-82
2022/12/26 05:46:49;;;;;;;;;;;;;;;;;;5032701;28;19921;-83
2022/12/26 05:49:16;;;;;;;;;;;;;;;;;;5031495;28;19936;-83
2022/12/26 05:51:44;;;;;;;;;;;;;;;;;;5032209;28;19928;-85
2022/12/26 05:54:11;;;;;;;;;;;;;;;;;;5016334;28;20376;-83
2022/12/26 05:56:44;;;;;;;;;;;;;;;;;;5022022;28;19921;-82
2022/12/26 05:59:11;;;;;;;;;;;;;;;;;;5026305;28;19928;-83
2022/12/26 06:01:44;;;;;;;;;;;;;;;;;;5055712;28;19921;-84
2022/12/26 06:04:16;;;;;;;;;;;;;;;;;;5043467;28;19928;-84
2022/12/26 06:06:44;;;;;;;;;;;;;;;;;;5022830;28;19929;-83
2022/12/26 06:09:11;;;;;;;;;;;;;;;;;;5022687;28;19928;-83
2022/12/26 06:11:44;;;;;;;;;;;;;;;;;;5031797;28;19921;-84
2022/12/26 06:14:16;;;;;;;;;;;;;;;;;;5028671;28;19928;-83
2022/12/26 06:16:44;;;;;;;;;;;;;;;;;;5027434;28;20278;-84
2022/12/26 06:19:11;;;;;;;;;;;;;;;;;;5030782;28;19921;-83
2022/12/26 06:21:39;;;;;;;;;;;;;;;;;;5032843;28;19928;-83
2022/12/26 06:24:12;;;;;;;;;;;;;;;;;;5028000;28;19921;-83
2022/12/26 06:26:40;;;;;;;;;;;;;;;;;;5025106;28;19925;-82
2022/12/26 06:29:08;;;;;;;;;;;;;;;;;;5026968;28;19925;-84
2022/12/26 06:31:35;;;;;;;;;;;;;;;;;;5023110;28;19922;-83
2022/12/26 06:34:03;;;;;;;;;;;;;;;;;;5031339;28;19928;-83
2022/12/26 06:36:35;;;;;;;;;;;;;;;;;;5027447;28;19928;-82
2022/12/26 06:39:08;;;;;;;;;;;;;;;;;;5035829;28;19922;-85
2022/12/26 06:41:36;;;;;;;;;;;;;;;;;;5028757;28;19944;-83
2022/12/26 06:44:03;;;;;;;;;;;;;;;;;;5028194;28;19921;-83
2022/12/26 06:46:30;;;;;;;;;;;;;;;;;;5026227;28;19925;-83
2022/12/26 06:49:05;;;;;;;;;;;;;;;;;;5054568;28;19928;-82
2022/12/26 06:51:37;;;;;;;;;;;;;;;;;;5029004;28;19928;-83
2022/12/26 06:54:10;;;;;;;;;;;;;;;;;;5020347;28;19948;-83
2022/12/26 06:56:42;;;;;;;;;;;;;;;;;;5027261;28;19921;-82
2022/12/26 06:59:15;;;;;;;;;;;;;;;;;;5028707;28;19936;-81
2022/12/26 07:01:47;;;;;;;;;;;;;;;;;;5020438;28;19929;-84
2022/12/26 07:04:15;;;;;;;;;;;;;;;;;;5027949;28;19944;-85
2022/12/26 07:06:43;;;;;;;;;;;;;;;;;;5024865;28;19944;-83
2022/12/26 07:09:13;;;;;;;;;;;;;;;;;;5045456;28;19932;-83
2022/12/26 07:11:45;;;;;;;;;;;;;;;;;;5023201;28;19928;-84
2022/12/26 07:14:12;;;;;;;;;;;;;;;;;;5026368;28;19921;-83
2022/12/26 07:16:45;;;;;;;;;;;;;;;;;;5033023;28;19928;-83
2022/12/26 07:19:17;;;;;;;;;;;;;;;;;;5061485;28;19928;-81
2022/12/26 07:21:46;;;;;;;;;;;;;;;;;;5032591;28;20293;-83
2022/12/26 07:24:13;;;;;;;;;;;;;;;;;;5039399;28;19925;-83
2022/12/26 07:26:41;;;;;;;;;;;;;;;;;;5026138;28;19921;-84
2022/12/26 07:29:09;;;;;;;;;;;;;;;;;;5025141;28;20377;-83
2022/12/26 07:31:42;;;;;;;;;;;;;;;;;;5032295;28;20404;-83
2022/12/26 07:34:09;;;;;;;;;;;;;;;;;;5053790;28;19922;-84
2022/12/26 07:36:42;;;;;;;;;;;;;;;;;;5030942;28;19928;-84
2022/12/26 07:39:09;;;;;;;;;;;;;;;;;;5044527;28;19929;-82
2022/12/26 07:41:57;;;;;;;;;;;;;;;;;;5032899;28;19921;-83
2022/12/26 07:44:24;;;;;;;;;;;;;;;;;;5032558;28;20004;-83
2022/12/26 07:46:57;;;;;;;;;;;;;;;;;;5024317;28;19921;-83
2022/12/26 07:49:29;;;;;;;;;;;;;;;;;;5028676;28;20309;-83
2022/12/26 07:52:03;;;;;;;;;;;;;;;;;;5025336;28;19936;-83
2022/12/26 07:54:31;;;;;;;;;;;;;;;;;;5061734;28;20366;-83
2022/12/26 07:57:03;;;;;;;;;;;;;;;;;;5055971;28;19920;-84
2022/12/26 07:59:36;;;;;;;;;;;;;;;;;;5042666;28;19928;-84
2022/12/26 08:02:04;;;;;;;;;;;;;;;;;;5056967;28;20370;-83
2022/12/26 08:04:31;;;;;;;;;;;;;;;;;;5028767;28;19925;-83
2022/12/26 08:07:03;;;;;;;;;;;;;;;;;;5029950;28;19928;-83
2022/12/26 08:09:31;;;;;;;;;;;;;;;;;;5034058;28;19925;-82
2022/12/26 08:12:03;;;;;;;;;;;;;;;;;;5028253;28;19921;-82
2022/12/26 08:14:36;;;;;;;;;;;;;;;;;;5027508;28;19936;-83
2022/12/26 08:17:08;;;;;;;;;;;;;;;;;;5066020;28;19921;-82
2022/12/26 08:19:41;;;;;;;;;;;;;;;;;;5043720;28;19932;-83
2022/12/26 08:22:08;;;;;;;;;;;;;;;;;;5028113;28;19921;-81
2022/12/26 08:24:36;;;;;;;;;;;;;;;;;;5030392;28;19921;-82
2022/12/26 08:27:03;;;;;;;;;;;;;;;;;;5022140;28;19930;-82
2022/12/26 08:29:31;;;;;;;;;;;;;;;;;;5044286;28;19932;-83
2022/12/26 08:32:03;;;;;;;;;;;;;;;;;;5021851;28;19928;-82
2022/12/26 08:34:36;;;;;;;;;;;;;;;;;;5027190;28;19921;-82
2022/12/26 08:37:03;;;;;;;;;;;;;;;;;;5030617;28;20366;-83
2022/12/26 08:39:31;;;;;;;;;;;;;;;;;;5060957;28;19925;-84
2022/12/26 08:41:58;;;;;;;;;;;;;;;;;;5031715;28;19921;-83
2022/12/26 08:44:31;;;;;;;;;;;;;;;;;;5025073;28;19924;-83
2022/12/26 08:46:58;;;;;;;;;;;;;;;;;;5027570;28;20285;-82
2022/12/26 08:49:31;;;;;;;;;;;;;;;;;;5029647;28;20370;-82
2022/12/26 08:51:58;;;;;;;;;;;;;;;;;;5023396;28;19921;-83
2022/12/26 08:54:26;;;;;;;;;;;;;;;;;;5032173;28;20293;-83
2022/12/26 08:56:53;;;;;;;;;;;;;;;;;;5030391;28;20309;-83
2022/12/26 08:59:26;;;;;;;;;;;;;;;;;;5055254;28;20290;-80
2022/12/26 09:01:53;;;;;;;;;;;;;;;;;;5021253;28;20374;-82
2022/12/26 09:04:21;;;;;;;;;;;;;;;;;;5055524;28;19926;-86
2022/12/26 09:06:48;;;;;;;;;;;;;;;;;;5032045;28;19928;-84
2022/12/26 09:09:16;;;;;;;;;;;;;;;;;;5024496;28;20282;-84
2022/12/26 09:11:43;;;;;;;;;;;;;;;;;;5034848;28;19928;-84
2022/12/26 09:14:16;;;;;;;;;;;;;;;;;;5022171;28;19921;-85
2022/12/26 09:16:45;;;;;;;;;;;;;;;;;;5027859;28;19921;-86
2022/12/26 09:19:12;;;;;;;;;;;;;;;;;;5029753;28;20684;-88
2022/12/26 09:21:40;;;;;;;;;;;;;;;;;;5023732;28;19928;-88
2022/12/26 09:24:07;;;;;;;;;;;;;;;;;;5026016;28;20370;-87
2022/12/26 09:26:35;;;;;;;;;;;;;;;;;;5036633;28;19936;-90
2022/12/26 09:29:02;;;;;;;;;;;;;;;;;;5021937;28;20369;-85
2022/12/26 09:31:30;;;;;;;;;;;;;;;;;;5027177;28;19921;-83
2022/12/26 09:34:02;;;;;;;;;;;;;;;;;;5027611;28;19921;-84
2022/12/26 09:36:30;;;;;;;;;;;;;;;;;;5025969;28;19921;-87
2022/12/26 09:38:57;;;;;;;;;;;;;;;;;;5024648;28;19922;-86
2022/12/26 09:41:25;;;;;;;;;;;;;;;;;;5024354;28;19921;-84
2022/12/26 09:43:57;;;;;;;;;;;;;;;;;;5020156;28;20745;-84
2022/12/26 09:46:25;;;;;;;;;;;;;;;;;;5020145;28;19925;-87
2022/12/26 09:48:52;;;;;;;;;;;;;;;;;;5058453;28;19928;-85
2022/12/26 09:51:20;;;;;;;;;;;;;;;;;;5053325;28;19929;-83
2022/12/26 09:53:47;;;;;;;;;;;;;;;;;;5021921;28;19928;-89
2022/12/26 09:56:15;;;;;;;;;;;;;;;;;;5030792;28;19944;-87
2022/12/26 09:58:42;;;;;;;;;;;;;;;;;;5026644;28;19925;-84
2022/12/26 10:01:15;;;;;;;;;;;;;;;;;;5036185;28;19928;-83
2022/12/26 10:03:42;;;;;;;;;;;;;;;;;;5028403;28;20297;-86
2022/12/26 10:06:15;;;;;;;;;;;;;;;;;;5022728;28;19925;-84
2022/12/26 10:08:43;;;;;;;;;;;;;;;;;;5023918;28;19951;-84
2022/12/26 10:11:10;;;;;;;;;;;;;;;;;;5026028;28;19921;-82
2022/12/26 10:13:42;;;;;;;;;;;;;;;;;;5050347;28;19928;-85
2022/12/26 10:16:15;;;;;;;;;;;;;;;;;;5057671;28;19928;-83
2022/12/26 10:18:47;;;;;;;;;;;;;;;;;;5027319;28;19922;-85
2022/12/26 10:21:15;;;;;;;;;;;;;;;;;;5019512;28;20294;-82
2022/12/26 10:23:47;;;;;;;;;;;;;;;;;;5028594;28;19921;-83
2022/12/26 10:26:20;;;;;;;;;;;;;;;;;;5032028;28;19926;-82
2022/12/26 10:28:47;;;;;;;;;;;;;;;;;;5017793;28;19928;-81
2022/12/26 10:31:15;;;;;;;;;;;;;;;;;;5020116;28;19929;-85
2022/12/26 10:33:50;;;;;;;;;;;;;;;;;;5025368;28;20373;-85
2022/12/26 10:36:18;;;;;;;;;;;;;;;;;;5025468;28;20361;-85
2022/12/26 10:38:46;;;;;;;;;;;;;;;;;;5021218;28;19925;-85
2022/12/26 10:41:19;;;;;;;;;;;;;;;;;;5017957;28;19936;-86
2022/12/26 10:43:46;;;;;;;;;;;;;;;;;;5027096;28;20385;-84
2022/12/26 10:46:19;;;;;;;;;;;;;;;;;;5025829;28;19922;-86
2022/12/26 10:48:47;;;;;;;;;;;;;;;;;;5053947;28;19922;-83
2022/12/26 10:51:14;;;;;;;;;;;;;;;;;;5027489;28;19921;-84
2022/12/26 10:53:42;;;;;;;;;;;;;;;;;;5026489;28;19931;-84
2022/12/26 10:56:10;;;;;;;;;;;;;;;;;;5023680;28;19921;-84
2022/12/26 10:58:38;;;;;;;;;;;;;;;;;;5027659;28;19921;-83
2022/12/26 11:01:06;;;;;;;;;;;;;;;;;;5016148;28;19928;-82
2022/12/26 11:03:33;;;;;;;;;;;;;;;;;;5029120;28;19928;-84
2022/12/26 11:06:06;;;;;;;;;;;;;;;;;;5025732;28;19932;-82
2022/12/26 11:08:38;;;;;;;;;;;;;;;;;;5022760;28;19921;-88
2022/12/26 11:11:06;;;;;;;;;;;;;;;;;;5053319;28;19925;-88
2022/12/26 11:13:38;;;;;;;;;;;;;;;;;;5020930;28;19928;-84
2022/12/26 11:16:06;;;;;;;;;;;;;;;;;;5055362;28;19929;-89
2022/12/26 11:18:38;;;;;;;;;;;;;;;;;;5018909;28;19928;-85
2022/12/26 11:21:06;;;;;;;;;;;;;;;;;;5019771;28;19931;-89
2022/12/26 11:23:33;;;;;;;;;;;;;;;;;;5026860;28;19928;-85
2022/12/26 11:26:06;;;;;;;;;;;;;;;;;;5024929;28;19922;-92
2022/12/26 11:28:33;;;;;;;;;;;;;;;;;;5029546;28;19921;-87
2022/12/26 11:31:01;;;;;;;;;;;;;;;;;;5040560;28;19921;-91
2022/12/26 11:33:29;;;;;;;;;;;;;;;;;;5024287;28;20322;-87
2022/12/26 11:35:56;;;;;;;;;;;;;;;;;;5026661;28;20776;-87
2022/12/26 11:38:38;;;;;;;;;;;;;;;;;;5021180;28;19921;-89
2022/12/26 11:44:01;;;;;;;;;;;;;;;;;;5025549;28;19921;-88
2022/12/26 11:46:33;;;;;;;;;;;;;;;;;;5024431;28;19921;-88
2022/12/26 11:49:06;;;;;;;;;;;;;;;;;;5020186;28;19929;-88
2022/12/26 11:51:33;;;;;;;;;;;;;;;;;;5055019;28;20780;-88
2022/12/26 11:54:01;;;;;;;;;;;;;;;;;;5026381;28;19921;-89
2022/12/26 11:56:28;;;;;;;;;;;;;;;;;;5014380;28;19929;-90
2022/12/26 11:59:01;;;;;;;;;;;;;;;;;;5017920;28;19929;-89
2022/12/26 12:01:29;;;;;;;;;;;;;;;;;;5017992;28;19928;-89
2022/12/26 12:03:57;;;;;;;;;;;;;;;;;;5031883;28;19929;-88
2022/12/26 12:06:30;;;;;;;;;;;;;;;;;;5027662;28;19928;-92
2022/12/26 12:08:57;;;;;;;;;;;;;;;;;;5028833;28;19928;-91
2022/12/26 12:11:30;;;;;;;;;;;;;;;;;;5031961;28;19928;-85
2022/12/26 12:13:57;;;;;;;;;;;;;;;;;;5044841;28;19921;-89
2022/12/26 12:16:25;;;;;;;;;;;;;;;;;;5021192;28;19940;-88
2022/12/26 12:18:57;;;;;;;;;;;;;;;;;;5029176;28;19921;-90
2022/12/26 12:21:25;;;;;;;;;;;;;;;;;;5060439;28;19921;-92
2022/12/26 12:23:57;;;;;;;;;;;;;;;;;;5030010;28;20294;-92
2022/12/26 12:26:25;;;;;;;;;;;;;;;;;;5027480;28;19921;-89
2022/12/26 12:28:57;;;;;;;;;;;;;;;;;;5034075;28;19928;-88
2022/12/26 12:31:25;;;;;;;;;;;;;;;;;;5031545;28;20297;-88
2022/12/26 12:33:57;;;;;;;;;;;;;;;;;;5029303;28;20271;-89
2022/12/26 12:36:25;;;;;;;;;;;;;;;;;;5065510;28;19929;-89
2022/12/26 12:38:52;;;;;;;;;;;;;;;;;;5026630;28;20404;-90
2022/12/26 12:41:25;;;;;;;;;;;;;;;;;;5027768;28;19921;-89
2022/12/26 12:43:52;;;;;;;;;;;;;;;;;;5066707;28;19932;-85
2022/12/26 12:46:20;;;;;;;;;;;;;;;;;;5022866;28;20247;-93
2022/12/26 12:48:53;;;;;;;;;;;;;;;;;;5029511;28;20351;-88
2022/12/26 12:51:20;;;;;;;;;;;;;;;;;;5033085;28;19921;-90
2022/12/26 12:53:53;;;;;;;;;;;;;;;;;;5023540;28;19925;-89
2022/12/26 12:56:25;;;;;;;;;;;;;;;;;;5054580;28;19929;-88
2022/12/26 12:58:53;;;;;;;;;;;;;;;;;;5059019;28;19926;-92
2022/12/26 13:01:21;;;;;;;;;;;;;;;;;;5040559;28;19928;-88
2022/12/26 13:03:48;;;;;;;;;;;;;;;;;;5061039;28;19928;-85
2022/12/26 13:06:21;;;;;;;;;;;;;;;;;;5024861;28;20374;-91
2022/12/26 13:08:49;;;;;;;;;;;;;;;;;;5033072;28;19920;-84
2022/12/26 13:11:16;;;;;;;;;;;;;;;;;;5032012;28;19920;-85
2022/12/26 13:13:44;;;;;;;;;;;;;;;;;;5026691;28;19921;-88
2022/12/26 13:16:11;;;;;;;;;;;;;;;;;;5057417;28;19921;-87
2022/12/26 13:18:44;;;;;;;;;;;;;;;;;;5056346;28;19928;-89
2022/12/26 13:21:17;;;;;;;;;;;;;;;;;;5033375;28;19944;-91
2022/12/26 13:26:30;;;;;;;;;;;;;;;;;;5045080;28;19929;-90
2022/12/26 13:29:03;;;;;;;;;;;;;;;;;;5018602;28;19932;-91
2022/12/26 13:31:31;;;;;;;;;;;;;;;;;;5014662;28;19944;-89
2022/12/26 13:33:58;;;;;;;;;;;;;;;;;;5043337;28;20290;-84
2022/12/26 13:36:26;;;;;;;;;;;;;;;;;;5022891;28;19925;-86
2022/12/26 13:39:00;;;;;;;;;;;;;;;;;;5018394;28;20289;-90
2022/12/26 13:44:18;;;;;;;;;;;;;;;;;;5024483;28;20374;-89
2022/12/26 13:46:51;;;;;;;;;;;;;;;;;;5022633;28;19922;-88
2022/12/26 13:49:23;;;;;;;;;;;;;;;;;;5021318;28;20321;-87
2022/12/26 13:51:51;;;;;;;;;;;;;;;;;;5026810;28;19921;-91
2022/12/26 13:54:19;;;;;;;;;;;;;;;;;;5020697;28;20642;-84
2022/12/26 13:56:52;;;;;;;;;;;;;;;;;;5030259;28;19928;-91
2022/12/26 13:59:22;;;;;;;;;;;;;;;;;;5026960;28;20397;-91
2022/12/26 14:01:49;;;;;;;;;;;;;;;;;;5029809;28;20365;-92
2022/12/26 14:04:22;;;;;;;;;;;;;;;;;;5029756;28;19929;-92
2022/12/26 14:06:55;;;;;;;;;;;;;;;;;;5032647;28;19928;-88
2022/12/26 14:09:22;;;;;;;;;;;;;;;;;;5023691;28;20374;-91
2022/12/26 14:11:50;;;;;;;;;;;;;;;;;;5031863;28;19921;-90
2022/12/26 14:14:17;;;;;;;;;;;;;;;;;;5023466;28;19932;-91
2022/12/26 14:16:45;;;;;;;;;;;;;;;;;;5020542;28;20370;-85
2022/12/26 14:19:12;;;;;;;;;;;;;;;;;;5022814;28;20499;-88
2022/12/26 14:21:40;;;;;;;;;;;;;;;;;;5029266;28;19921;-86
2022/12/26 14:24:07;;;;;;;;;;;;;;;;;;5029187;28;20492;-85
2022/12/26 14:26:35;;;;;;;;;;;;;;;;;;5026500;28;20406;-80
2022/12/26 14:29:02;;;;;;;;;;;;;;;;;;5053446;28;19922;-82
2022/12/26 14:31:30;;;;;;;;;;;;;;;;;;5024968;28;19921;-88
2022/12/26 14:33:57;;;;;;;;;;;;;;;;;;5022907;28;19921;-91
2022/12/26 14:36:30;;;;;;;;;;;;;;;;;;5053487;28;19921;-89
2022/12/26 14:39:02;;;;;;;;;;;;;;;;;;5024425;28;19928;-87
2022/12/26 14:44:15;;;;;;;;;;;;;;;;;;5023893;28;19921;-84
2022/12/26 14:46:43;;;;;;;;;;;;;;;;;;5054740;28;19930;-87
2022/12/26 14:49:10;;;;;;;;;;;;;;;;;;5053855;28;19928;-85
2022/12/26 14:51:38;;;;;;;;;;;;;;;;;;5021800;28;19929;-86
2022/12/26 14:54:08;;;;;;;;;;;;;;;;;;5015593;28;19928;-83
2022/12/26 14:56:36;;;;;;;;;;;;;;;;;;5044554;28;19929;-87
2022/12/26 14:59:08;;;;;;;;;;;;;;;;;;5010058;28;19944;-87
2022/12/26 15:01:36;;;;;;;;;;;;;;;;;;5008266;28;20654;-87
2022/12/26 15:04:08;;;;;;;;;;;;;;;;;;5008042;28;19929;-87
2022/12/26 15:06:36;;;;;;;;;;;;;;;;;;5006535;28;19929;-83
2022/12/26 15:09:08;;;;;;;;;;;;;;;;;;5006063;28;20386;-89
2022/12/26 15:11:36;;;;;;;;;;;;;;;;;;5010730;28;19937;-83
2022/12/26 15:14:03;;;;;;;;;;;;;;;;;;5020563;28;19929;-85
2022/12/26 15:16:31;;;;;;;;;;;;;;;;;;5008694;28;19929;-85
2022/12/26 15:18:58;;;;;;;;;;;;;;;;;;5011278;28;19929;-84
2022/12/26 15:21:26;;;;;;;;;;;;;;;;;;5010694;28;20297;-87
2022/12/26 15:23:54;;;;;;;;;;;;;;;;;;5006881;28;19933;-85
2022/12/26 15:26:21;;;;;;;;;;;;;;;;;;5008886;28;19933;-87
2022/12/26 15:28:54;;;;;;;;;;;;;;;;;;5004172;28;19940;-88
2022/12/26 15:31:21;;;;;;;;;;;;;;;;;;5040399;28;19929;-87
2022/12/26 15:33:54;;;;;;;;;;;;;;;;;;5035829;28;19940;-87
2022/12/26 15:36:26;;;;;;;;;;;;;;;;;;5008944;28;19936;-86
2022/12/26 15:38:54;;;;;;;;;;;;;;;;;;5013680;28;19929;-88
2022/12/26 15:41:26;;;;;;;;;;;;;;;;;;5013135;28;20690;-87
2022/12/26 15:43:54;;;;;;;;;;;;;;;;;;5018759;28;21237;-88
2022/12/26 15:46:27;;;;;;;;;;;;;;;;;;5011586;28;20491;-87
2022/12/26 15:48:54;;;;;;;;;;;;;;;;;;5017269;28;19929;-92
2022/12/26 15:51:22;;;;;;;;;;;;;;;;;;5009578;28;19931;-89
2022/12/26 15:53:50;;;;;;;;;;;;;;;;;;5012285;28;20406;-87
2022/12/26 15:56:22;;;;;;;;;;;;;;;;;;5015393;28;19940;-88
2022/12/26 15:58:55;;;;;;;;;;;;;;;;;;5013558;28;20373;-86
2022/12/26 16:01:27;;;;;;;;;;;;;;;;;;5014338;28;19929;-88
2022/12/26 16:04:00;;;;;;;;;;;;;;;;;;5013685;28;19940;-87
2022/12/26 16:06:27;;;;;;;;;;;;;;;;;;5012603;28;19936;-86
2022/12/26 16:08:55;;;;;;;;;;;;;;;;;;5045554;28;20577;-86
2022/12/26 16:11:28;;;;;;;;;;;;;;;;;;5009307;28;19936;-86
2022/12/26 16:14:00;;;;;;;;;;;;;;;;;;5039073;28;19929;-86
2022/12/26 16:16:28;;;;;;;;;;;;;;;;;;5007584;28;19963;-86
2022/12/26 16:19:00;;;;;;;;;;;;;;;;;;5014726;28;19936;-87
2022/12/26 16:24:14;;;;;;;;;;;;;;;;;;5015399;28;19932;-85
2022/12/26 16:26:42;;;;;;;;;;;;;;;;;;5020276;28;20321;-86
2022/12/26 16:29:10;;;;;;;;;;;;;;;;;;5010445;28;19936;-85
2022/12/26 16:31:37;;;;;;;;;;;;;;;;;;5040160;28;19929;-86
2022/12/26 16:34:10;;;;;;;;;;;;;;;;;;5006316;28;19929;-83
2022/12/26 16:36:38;;;;;;;;;;;;;;;;;;5005980;28;19936;-86
2022/12/26 16:39:06;;;;;;;;;;;;;;;;;;5007536;28;20714;-86
2022/12/26 16:41:33;;;;;;;;;;;;;;;;;;5013548;28;19929;-83
2022/12/26 16:44:01;;;;;;;;;;;;;;;;;;5014772;28;19936;-85
2022/12/26 16:46:28;;;;;;;;;;;;;;;;;;5013700;28;20592;-86
2022/12/26 16:49:01;;;;;;;;;;;;;;;;;;5011892;28;19929;-85
2022/12/26 16:51:28;;;;;;;;;;;;;;;;;;5019216;28;19935;-85
2022/12/26 16:54:01;;;;;;;;;;;;;;;;;;5015888;28;19929;-86
2022/12/26 16:56:34;;;;;;;;;;;;;;;;;;5008163;28;19929;-85
2022/12/26 16:59:01;;;;;;;;;;;;;;;;;;5040702;28;19929;-86
2022/12/26 17:01:29;;;;;;;;;;;;;;;;;;5008844;28;19935;-86
2022/12/26 17:03:57;;;;;;;;;;;;;;;;;;5008883;28;19936;-85
2022/12/26 17:06:25;;;;;;;;;;;;;;;;;;5008579;28;19928;-85
2022/12/26 17:08:52;;;;;;;;;;;;;;;;;;5007607;28;19929;-85
2022/12/26 17:11:25;;;;;;;;;;;;;;;;;;5011583;28;21183;-86
2022/12/26 17:13:52;;;;;;;;;;;;;;;;;;5010515;28;20301;-85
2022/12/26 17:16:20;;;;;;;;;;;;;;;;;;5012723;28;20385;-85
2022/12/26 17:18:52;;;;;;;;;;;;;;;;;;5013646;28;20333;-85
2022/12/26 17:21:20;;;;;;;;;;;;;;;;;;5013755;28;20940;-85
2022/12/26 17:23:52;;;;;;;;;;;;;;;;;;5007990;28;19960;-85
2022/12/26 17:26:25;;;;;;;;;;;;;;;;;;5013200;28;19939;-85
2022/12/26 17:28:52;;;;;;;;;;;;;;;;;;5010688;28;19929;-85
2022/12/26 17:31:25;;;;;;;;;;;;;;;;;;5014893;28;19929;-85
2022/12/26 17:33:53;;;;;;;;;;;;;;;;;;5010622;28;19929;-86
2022/12/26 17:36:25;;;;;;;;;;;;;;;;;;5008771;28;19936;-85
2022/12/26 17:38:58;;;;;;;;;;;;;;;;;;5011214;28;19929;-85
2022/12/26 17:41:25;;;;;;;;;;;;;;;;;;5008326;28;19929;-85
2022/12/26 17:43:53;;;;;;;;;;;;;;;;;;5007779;28;19929;-85
2022/12/26 17:46:25;;;;;;;;;;;;;;;;;;5007206;28;20600;-85
2022/12/26 17:48:53;;;;;;;;;;;;;;;;;;5007488;28;19928;-86
2022/12/26 17:51:28;;;;;;;;;;;;;;;;;;5014494;28;19929;-85
2022/12/26 17:54:00;;;;;;;;;;;;;;;;;;5010260;28;20698;-84
2022/12/26 17:56:28;;;;;;;;;;;;;;;;;;5042721;28;19929;-85
2022/12/26 17:59:01;;;;;;;;;;;;;;;;;;5012824;28;19936;-84
2022/12/26 18:01:28;;;;;;;;;;;;;;;;;;5008066;28;20305;-85
2022/12/26 18:04:01;;;;;;;;;;;;;;;;;;5012780;28;19929;-86
2022/12/26 18:06:28;;;;;;;;;;;;;;;;;;5046008;28;19932;-85
2022/12/26 18:09:01;;;;;;;;;;;;;;;;;;5012575;28;19936;-85
2022/12/26 18:11:28;;;;;;;;;;;;;;;;;;5008582;28;19936;-85
2022/12/26 18:13:56;;;;;;;;;;;;;;;;;;5010926;28;19925;-85
2022/12/26 18:16:26;;;;;;;;;;;;;;;;;;5010482;28;19928;-86
2022/12/26 18:18:59;;;;;;;;;;;;;;;;;;5017792;28;19929;-86
2022/12/26 18:21:27;;;;;;;;;;;;;;;;;;5009433;28;19960;-84
2022/12/26 18:23:55;;;;;;;;;;;;;;;;;;5008890;28;19944;-84
2022/12/26 18:26:28;;;;;;;;;;;;;;;;;;5007834;28;21137;-84
2022/12/26 18:28:55;;;;;;;;;;;;;;;;;;5008020;28;19929;-85
2022/12/26 18:31:29;;;;;;;;;;;;;;;;;;5009296;28;19940;-84
2022/12/26 18:34:02;;;;;;;;;;;;;;;;;;5013663;28;19929;-85
2022/12/26 18:36:34;;;;;;;;;;;;;;;;;;5008839;28;19928;-85
2022/12/26 18:39:02;;;;;;;;;;;;;;;;;;5008607;28;20390;-86
2022/12/26 18:41:30;;;;;;;;;;;;;;;;;;5008531;28;19928;-84
2022/12/26 18:44:03;;;;;;;;;;;;;;;;;;5010040;28;19929;-84
2022/12/26 18:46:36;;;;;;;;;;;;;;;;;;5018764;28;19921;-85
2022/12/26 18:49:03;;;;;;;;;;;;;;;;;;5006481;28;19936;-84
2022/12/26 18:51:31;;;;;;;;;;;;;;;;;;5013580;28;19928;-84
2022/12/26 18:53:58;;;;;;;;;;;;;;;;;;5009657;28;20902;-85
2022/12/26 18:56:26;;;;;;;;;;;;;;;;;;5007537;28;20308;-85
2022/12/26 18:58:54;;;;;;;;;;;;;;;;;;5012875;28;19929;-86
2022/12/26 19:01:26;;;;;;;;;;;;;;;;;;5025486;28;19929;-84
2022/12/26 19:03:54;;;;;;;;;;;;;;;;;;5009511;28;19929;-85
2022/12/26 19:06:22;;;;;;;;;;;;;;;;;;5007263;28;21669;-86
2022/12/26 19:08:49;;;;;;;;;;;;;;;;;;5009430;28;19933;-85
2022/12/26 19:11:17;;;;;;;;;;;;;;;;;;5010637;28;20321;-85
2022/12/26 19:13:44;;;;;;;;;;;;;;;;;;5009726;28;19928;-86
2022/12/26 19:16:17;;;;;;;;;;;;;;;;;;5046660;28;19928;-84